sensor_id;sensor_type;location;lat;lon;timestamp;P1;durP1;ratioP1;P2;durP2;ratioP2
14078;SDS011;7115;50.150;8.568;2023-08-31T00:01:10;3.90;;;2.40;;
14078;SDS011;7115;50.150;8.568;2023-08-31T00:03:37;5.30;;;2.57;;
14078;SDS011;7115;50.150;8.568;2023-08-31T00:06:04;2.63;;;2.30;;
14078;SDS011;7115;50.150;8.568;2023-08-31T00:08:35;5.00;;;2.47;;
14078;SDS011;7115;50.150;8.568;2023-08-31T00:11:02;5.30;;;2.30;;
14078;SDS011;7115;50.150;8.568;2023-08-31T00:13:29;3.53;;;2.47;;
14078;SDS011;7115;50.150;8.568;2023-08-31T00:15:56;5.27;;;2.30;;
14078;SDS011;7115;50.150;8.568;2023-08-31T00:18:24;5.40;;;2.30;;
14078;SDS011;7115;50.150;8.568;2023-08-31T00:20:52;5.97;;;2.10;;
14078;SDS011;7115;50.150;8.568;2023-08-31T00:23:19;5.70;;;2.10;;
14078;SDS011;7115;50.150;8.568;2023-08-31T00:25:47;5.23;;;2.10;;
14078;SDS011;7115;50.150;8.568;2023-08-31T00:28:14;4.70;;;2.37;;
14078;SDS011;7115;50.150;8.568;2023-08-31T00:30:41;3.63;;;2.33;;
14078;SDS011;7115;50.150;8.568;2023-08-31T00:33:10;6.47;;;2.60;;
14078;SDS011;7115;50.150;8.568;2023-08-31T00:35:38;3.93;;;2.27;;
14078;SDS011;7115;50.150;8.568;2023-08-31T00:38:09;6.70;;;2.27;;
14078;SDS011;7115;50.150;8.568;2023-08-31T00:40:38;5.03;;;2.10;;
14078;SDS011;7115;50.150;8.568;2023-08-31T00:43:08;7.00;;;2.40;;
14078;SDS011;7115;50.150;8.568;2023-08-31T00:45:36;3.23;;;2.13;;
14078;SDS011;7115;50.150;8.568;2023-08-31T00:48:03;5.50;;;2.13;;
14078;SDS011;7115;50.150;8.568;2023-08-31T00:50:31;6.63;;;2.23;;
14078;SDS011;7115;50.150;8.568;2023-08-31T00:52:58;6.73;;;2.20;;
14078;SDS011;7115;50.150;8.568;2023-08-31T00:55:25;3.37;;;1.87;;
14078;SDS011;7115;50.150;8.568;2023-08-31T00:57:52;5.30;;;2.00;;
14078;SDS011;7115;50.150;8.568;2023-08-31T01:00:23;3.47;;;2.17;;
14078;SDS011;7115;50.150;8.568;2023-08-31T01:02:58;4.73;;;2.50;;
14078;SDS011;7115;50.150;8.568;2023-08-31T01:05:32;5.33;;;2.30;;
14078;SDS011;7115;50.150;8.568;2023-08-31T01:08:10;4.73;;;2.33;;
14078;SDS011;7115;50.150;8.568;2023-08-31T01:10:48;8.13;;;2.57;;
14078;SDS011;7115;50.150;8.568;2023-08-31T01:13:26;3.13;;;2.40;;
14078;SDS011;7115;50.150;8.568;2023-08-31T01:15:59;4.23;;;2.43;;
14078;SDS011;7115;50.150;8.568;2023-08-31T01:18:29;4.57;;;2.47;;
14078;SDS011;7115;50.150;8.568;2023-08-31T01:20:58;3.40;;;2.17;;
14078;SDS011;7115;50.150;8.568;2023-08-31T01:23:40;4.87;;;2.67;;
14078;SDS011;7115;50.150;8.568;2023-08-31T01:26:16;5.90;;;2.50;;
14078;SDS011;7115;50.150;8.568;2023-08-31T01:28:43;11.87;;;3.00;;
14078;SDS011;7115;50.150;8.568;2023-08-31T01:31:11;3.37;;;2.40;;
14078;SDS011;7115;50.150;8.568;2023-08-31T01:33:38;5.50;;;3.07;;
14078;SDS011;7115;50.150;8.568;2023-08-31T01:36:06;6.77;;;2.80;;
14078;SDS011;7115;50.150;8.568;2023-08-31T01:38:39;8.83;;;3.07;;
14078;SDS011;7115;50.150;8.568;2023-08-31T01:41:10;5.00;;;2.50;;
14078;SDS011;7115;50.150;8.568;2023-08-31T01:43:42;6.53;;;3.03;;
14078;SDS011;7115;50.150;8.568;2023-08-31T01:46:10;5.40;;;3.10;;
14078;SDS011;7115;50.150;8.568;2023-08-31T01:48:38;4.33;;;2.60;;
14078;SDS011;7115;50.150;8.568;2023-08-31T01:51:06;7.27;;;2.87;;
14078;SDS011;7115;50.150;8.568;2023-08-31T01:53:33;6.57;;;3.10;;
14078;SDS011;7115;50.150;8.568;2023-08-31T01:56:02;4.30;;;3.20;;
14078;SDS011;7115;50.150;8.568;2023-08-31T01:58:31;4.00;;;3.00;;
14078;SDS011;7115;50.150;8.568;2023-08-31T02:00:58;5.30;;;3.20;;
14078;SDS011;7115;50.150;8.568;2023-08-31T02:03:25;4.03;;;3.03;;
14078;SDS011;7115;50.150;8.568;2023-08-31T02:05:52;5.77;;;3.43;;
14078;SDS011;7115;50.150;8.568;2023-08-31T02:08:19;6.07;;;3.23;;
14078;SDS011;7115;50.150;8.568;2023-08-31T02:10:46;6.57;;;3.30;;
14078;SDS011;7115;50.150;8.568;2023-08-31T02:13:14;4.47;;;3.33;;
14078;SDS011;7115;50.150;8.568;2023-08-31T02:15:42;3.33;;;2.83;;
14078;SDS011;7115;50.150;8.568;2023-08-31T02:18:09;6.40;;;3.37;;
14078;SDS011;7115;50.150;8.568;2023-08-31T02:20:36;4.10;;;3.10;;
14078;SDS011;7115;50.150;8.568;2023-08-31T02:23:03;6.33;;;3.80;;
14078;SDS011;7115;50.150;8.568;2023-08-31T02:25:30;4.50;;;2.80;;
14078;SDS011;7115;50.150;8.568;2023-08-31T02:27:57;4.63;;;3.20;;
14078;SDS011;7115;50.150;8.568;2023-08-31T02:30:25;6.00;;;3.13;;
14078;SDS011;7115;50.150;8.568;2023-08-31T02:32:52;6.53;;;3.20;;
14078;SDS011;7115;50.150;8.568;2023-08-31T02:35:19;5.57;;;3.50;;
14078;SDS011;7115;50.150;8.568;2023-08-31T02:37:46;7.73;;;3.63;;
14078;SDS011;7115;50.150;8.568;2023-08-31T02:40:13;7.17;;;3.47;;
14078;SDS011;7115;50.150;8.568;2023-08-31T02:42:40;7.53;;;3.60;;
14078;SDS011;7115;50.150;8.568;2023-08-31T02:45:07;5.87;;;3.37;;
14078;SDS011;7115;50.150;8.568;2023-08-31T02:47:36;6.83;;;3.50;;
14078;SDS011;7115;50.150;8.568;2023-08-31T02:50:03;3.50;;;3.20;;
14078;SDS011;7115;50.150;8.568;2023-08-31T02:52:32;11.00;;;3.87;;
14078;SDS011;7115;50.150;8.568;2023-08-31T02:54:58;5.27;;;3.87;;
14078;SDS011;7115;50.150;8.568;2023-08-31T02:57:25;4.93;;;3.27;;
14078;SDS011;7115;50.150;8.568;2023-08-31T02:59:52;6.07;;;3.70;;
14078;SDS011;7115;50.150;8.568;2023-08-31T03:02:19;6.10;;;3.87;;
14078;SDS011;7115;50.150;8.568;2023-08-31T03:04:48;6.47;;;3.80;;
14078;SDS011;7115;50.150;8.568;2023-08-31T03:07:15;4.80;;;3.70;;
14078;SDS011;7115;50.150;8.568;2023-08-31T03:09:42;7.00;;;3.90;;
14078;SDS011;7115;50.150;8.568;2023-08-31T03:12:09;7.97;;;4.03;;
14078;SDS011;7115;50.150;8.568;2023-08-31T03:14:36;5.77;;;3.93;;
14078;SDS011;7115;50.150;8.568;2023-08-31T03:17:03;9.73;;;4.57;;
14078;SDS011;7115;50.150;8.568;2023-08-31T03:19:30;4.93;;;4.00;;
14078;SDS011;7115;50.150;8.568;2023-08-31T03:21:58;5.77;;;4.37;;
14078;SDS011;7115;50.150;8.568;2023-08-31T03:24:24;6.67;;;4.47;;
14078;SDS011;7115;50.150;8.568;2023-08-31T03:26:51;6.13;;;4.13;;
14078;SDS011;7115;50.150;8.568;2023-08-31T03:29:18;6.70;;;4.60;;
14078;SDS011;7115;50.150;8.568;2023-08-31T03:31:45;6.23;;;4.60;;
14078;SDS011;7115;50.150;8.568;2023-08-31T03:34:12;8.03;;;4.43;;
14078;SDS011;7115;50.150;8.568;2023-08-31T03:36:40;5.37;;;4.40;;
14078;SDS011;7115;50.150;8.568;2023-08-31T03:39:08;5.77;;;4.07;;
14078;SDS011;7115;50.150;8.568;2023-08-31T03:41:35;8.30;;;4.97;;
14078;SDS011;7115;50.150;8.568;2023-08-31T03:44:02;7.00;;;4.60;;
14078;SDS011;7115;50.150;8.568;2023-08-31T03:46:29;9.73;;;5.10;;
14078;SDS011;7115;50.150;8.568;2023-08-31T03:48:56;6.30;;;4.83;;
14078;SDS011;7115;50.150;8.568;2023-08-31T03:51:23;7.83;;;5.17;;
14078;SDS011;7115;50.150;8.568;2023-08-31T03:53:50;7.57;;;5.00;;
14078;SDS011;7115;50.150;8.568;2023-08-31T03:56:18;7.80;;;4.90;;
14078;SDS011;7115;50.150;8.568;2023-08-31T03:58:45;7.43;;;5.23;;
14078;SDS011;7115;50.150;8.568;2023-08-31T04:01:11;7.00;;;5.10;;
14078;SDS011;7115;50.150;8.568;2023-08-31T04:03:41;7.97;;;5.00;;
14078;SDS011;7115;50.150;8.568;2023-08-31T04:06:08;10.77;;;4.73;;
14078;SDS011;7115;50.150;8.568;2023-08-31T04:08:35;11.60;;;4.73;;
14078;SDS011;7115;50.150;8.568;2023-08-31T04:11:02;8.77;;;4.87;;
14078;SDS011;7115;50.150;8.568;2023-08-31T04:13:30;7.03;;;5.07;;
14078;SDS011;7115;50.150;8.568;2023-08-31T04:15:57;11.80;;;4.53;;
14078;SDS011;7115;50.150;8.568;2023-08-31T04:18:24;11.10;;;5.03;;
14078;SDS011;7115;50.150;8.568;2023-08-31T04:20:52;11.47;;;4.97;;
14078;SDS011;7115;50.150;8.568;2023-08-31T04:23:20;6.10;;;5.00;;
14078;SDS011;7115;50.150;8.568;2023-08-31T04:25:47;7.97;;;4.90;;
14078;SDS011;7115;50.150;8.568;2023-08-31T04:28:14;8.33;;;4.87;;
14078;SDS011;7115;50.150;8.568;2023-08-31T04:30:42;7.80;;;4.57;;
14078;SDS011;7115;50.150;8.568;2023-08-31T04:33:10;9.53;;;5.50;;
14078;SDS011;7115;50.150;8.568;2023-08-31T04:35:38;7.63;;;4.80;;
14078;SDS011;7115;50.150;8.568;2023-08-31T04:38:05;12.10;;;5.23;;
14078;SDS011;7115;50.150;8.568;2023-08-31T04:40:31;8.10;;;4.93;;
14078;SDS011;7115;50.150;8.568;2023-08-31T04:42:58;9.90;;;5.00;;
14078;SDS011;7115;50.150;8.568;2023-08-31T04:45:25;6.53;;;4.83;;
14078;SDS011;7115;50.150;8.568;2023-08-31T04:47:53;9.30;;;5.20;;
14078;SDS011;7115;50.150;8.568;2023-08-31T04:50:21;10.03;;;4.77;;
14078;SDS011;7115;50.150;8.568;2023-08-31T04:52:47;13.70;;;5.47;;
14078;SDS011;7115;50.150;8.568;2023-08-31T04:55:14;6.63;;;5.03;;
14078;SDS011;7115;50.150;8.568;2023-08-31T04:57:41;7.70;;;5.43;;
14078;SDS011;7115;50.150;8.568;2023-08-31T05:00:08;8.53;;;4.90;;
14078;SDS011;7115;50.150;8.568;2023-08-31T05:02:35;9.53;;;4.60;;
14078;SDS011;7115;50.150;8.568;2023-08-31T05:05:04;8.37;;;4.90;;
14078;SDS011;7115;50.150;8.568;2023-08-31T05:07:32;7.97;;;4.83;;
14078;SDS011;7115;50.150;8.568;2023-08-31T05:09:59;13.70;;;7.37;;
14078;SDS011;7115;50.150;8.568;2023-08-31T05:12:26;8.37;;;5.67;;
14078;SDS011;7115;50.150;8.568;2023-08-31T05:14:52;9.23;;;4.80;;
14078;SDS011;7115;50.150;8.568;2023-08-31T05:17:19;9.87;;;4.50;;
14078;SDS011;7115;50.150;8.568;2023-08-31T05:19:47;9.33;;;4.80;;
14078;SDS011;7115;50.150;8.568;2023-08-31T05:22:15;7.17;;;4.50;;
14078;SDS011;7115;50.150;8.568;2023-08-31T05:24:42;9.93;;;5.27;;
14078;SDS011;7115;50.150;8.568;2023-08-31T05:27:09;9.17;;;4.60;;
14078;SDS011;7115;50.150;8.568;2023-08-31T05:29:36;5.90;;;4.07;;
14078;SDS011;7115;50.150;8.568;2023-08-31T05:32:03;10.03;;;4.80;;
14078;SDS011;7115;50.150;8.568;2023-08-31T05:34:30;4.73;;;4.10;;
14078;SDS011;7115;50.150;8.568;2023-08-31T05:37:01;7.57;;;4.20;;
14078;SDS011;7115;50.150;8.568;2023-08-31T05:39:32;7.60;;;4.27;;
14078;SDS011;7115;50.150;8.568;2023-08-31T05:41:59;7.63;;;4.33;;
14078;SDS011;7115;50.150;8.568;2023-08-31T05:44:28;5.87;;;4.50;;
14078;SDS011;7115;50.150;8.568;2023-08-31T05:46:55;11.07;;;5.87;;
14078;SDS011;7115;50.150;8.568;2023-08-31T05:49:22;7.43;;;4.40;;
14078;SDS011;7115;50.150;8.568;2023-08-31T05:51:49;11.47;;;5.03;;
14078;SDS011;7115;50.150;8.568;2023-08-31T05:54:17;9.63;;;4.90;;
14078;SDS011;7115;50.150;8.568;2023-08-31T05:56:45;11.77;;;5.00;;
14078;SDS011;7115;50.150;8.568;2023-08-31T05:59:14;10.00;;;4.67;;
14078;SDS011;7115;50.150;8.568;2023-08-31T06:01:40;7.50;;;4.37;;
14078;SDS011;7115;50.150;8.568;2023-08-31T06:04:08;7.83;;;4.30;;
14078;SDS011;7115;50.150;8.568;2023-08-31T06:06:35;6.43;;;4.40;;
14078;SDS011;7115;50.150;8.568;2023-08-31T06:09:02;8.87;;;4.50;;
14078;SDS011;7115;50.150;8.568;2023-08-31T06:11:29;6.93;;;4.57;;
14078;SDS011;7115;50.150;8.568;2023-08-31T06:13:58;5.83;;;4.07;;
14078;SDS011;7115;50.150;8.568;2023-08-31T06:16:25;10.53;;;4.60;;
14078;SDS011;7115;50.150;8.568;2023-08-31T06:18:52;6.17;;;4.53;;
14078;SDS011;7115;50.150;8.568;2023-08-31T06:21:18;9.00;;;4.77;;
14078;SDS011;7115;50.150;8.568;2023-08-31T06:23:45;6.50;;;4.53;;
14078;SDS011;7115;50.150;8.568;2023-08-31T06:26:12;9.00;;;4.50;;
14078;SDS011;7115;50.150;8.568;2023-08-31T06:28:39;10.67;;;4.50;;
14078;SDS011;7115;50.150;8.568;2023-08-31T06:31:07;9.87;;;4.73;;
14078;SDS011;7115;50.150;8.568;2023-08-31T06:33:35;7.47;;;4.10;;
14078;SDS011;7115;50.150;8.568;2023-08-31T06:36:02;9.43;;;4.30;;
14078;SDS011;7115;50.150;8.568;2023-08-31T06:38:29;5.67;;;3.60;;
14078;SDS011;7115;50.150;8.568;2023-08-31T06:40:55;7.83;;;4.03;;
14078;SDS011;7115;50.150;8.568;2023-08-31T06:43:25;5.87;;;3.20;;
14078;SDS011;7115;50.150;8.568;2023-08-31T06:45:55;5.60;;;3.13;;
14078;SDS011;7115;50.150;8.568;2023-08-31T06:48:33;4.00;;;2.93;;
14078;SDS011;7115;50.150;8.568;2023-08-31T06:51:00;7.53;;;3.50;;
14078;SDS011;7115;50.150;8.568;2023-08-31T06:53:29;9.70;;;3.93;;
14078;SDS011;7115;50.150;8.568;2023-08-31T06:55:57;7.30;;;3.67;;
14078;SDS011;7115;50.150;8.568;2023-08-31T06:58:24;5.17;;;3.30;;
14078;SDS011;7115;50.150;8.568;2023-08-31T07:00:51;5.60;;;3.30;;
14078;SDS011;7115;50.150;8.568;2023-08-31T07:03:18;6.93;;;3.13;;
14078;SDS011;7115;50.150;8.568;2023-08-31T07:05:46;5.03;;;2.73;;
14078;SDS011;7115;50.150;8.568;2023-08-31T07:08:13;8.33;;;2.77;;
14078;SDS011;7115;50.150;8.568;2023-08-31T07:10:40;6.10;;;2.60;;
14078;SDS011;7115;50.150;8.568;2023-08-31T07:13:07;3.63;;;2.60;;
14078;SDS011;7115;50.150;8.568;2023-08-31T07:15:34;4.73;;;2.67;;
14078;SDS011;7115;50.150;8.568;2023-08-31T07:18:01;2.90;;;2.33;;
14078;SDS011;7115;50.150;8.568;2023-08-31T07:20:27;3.37;;;2.00;;
14078;SDS011;7115;50.150;8.568;2023-08-31T07:22:56;8.37;;;2.43;;
14078;SDS011;7115;50.150;8.568;2023-08-31T07:25:23;4.70;;;2.20;;
14078;SDS011;7115;50.150;8.568;2023-08-31T07:27:49;6.33;;;2.00;;
14078;SDS011;7115;50.150;8.568;2023-08-31T07:30:16;4.80;;;1.60;;
14078;SDS011;7115;50.150;8.568;2023-08-31T07:32:44;4.13;;;1.50;;
14078;SDS011;7115;50.150;8.568;2023-08-31T07:35:11;3.20;;;1.50;;
14078;SDS011;7115;50.150;8.568;2023-08-31T07:37:37;4.07;;;1.57;;
14078;SDS011;7115;50.150;8.568;2023-08-31T07:40:07;6.27;;;1.63;;
14078;SDS011;7115;50.150;8.568;2023-08-31T07:42:36;6.40;;;1.80;;
14078;SDS011;7115;50.150;8.568;2023-08-31T07:45:03;6.20;;;1.67;;
14078;SDS011;7115;50.150;8.568;2023-08-31T07:47:34;4.33;;;1.50;;
14078;SDS011;7115;50.150;8.568;2023-08-31T07:50:01;3.97;;;1.40;;
14078;SDS011;7115;50.150;8.568;2023-08-31T07:52:28;2.50;;;1.40;;
14078;SDS011;7115;50.150;8.568;2023-08-31T07:54:55;5.63;;;1.87;;
14078;SDS011;7115;50.150;8.568;2023-08-31T07:57:23;2.47;;;1.40;;
14078;SDS011;7115;50.150;8.568;2023-08-31T07:59:50;6.87;;;1.80;;
14078;SDS011;7115;50.150;8.568;2023-08-31T08:02:17;4.70;;;1.53;;
14078;SDS011;7115;50.150;8.568;2023-08-31T08:04:45;2.97;;;1.47;;
14078;SDS011;7115;50.150;8.568;2023-08-31T08:07:12;3.93;;;1.60;;
14078;SDS011;7115;50.150;8.568;2023-08-31T08:09:39;4.17;;;1.30;;
14078;SDS011;7115;50.150;8.568;2023-08-31T08:12:06;4.00;;;1.40;;
14078;SDS011;7115;50.150;8.568;2023-08-31T08:14:35;4.87;;;1.60;;
14078;SDS011;7115;50.150;8.568;2023-08-31T08:17:02;5.20;;;1.37;;
14078;SDS011;7115;50.150;8.568;2023-08-31T08:19:29;3.13;;;1.50;;
14078;SDS011;7115;50.150;8.568;2023-08-31T08:21:56;4.67;;;1.60;;
14078;SDS011;7115;50.150;8.568;2023-08-31T08:24:23;5.07;;;1.53;;
14078;SDS011;7115;50.150;8.568;2023-08-31T08:26:50;4.07;;;1.40;;
14078;SDS011;7115;50.150;8.568;2023-08-31T08:29:17;2.27;;;1.70;;
14078;SDS011;7115;50.150;8.568;2023-08-31T08:31:45;6.43;;;1.90;;
14078;SDS011;7115;50.150;8.568;2023-08-31T08:34:12;3.33;;;1.70;;
14078;SDS011;7115;50.150;8.568;2023-08-31T08:36:39;7.70;;;1.73;;
14078;SDS011;7115;50.150;8.568;2023-08-31T08:39:05;4.37;;;2.37;;
14078;SDS011;7115;50.150;8.568;2023-08-31T08:41:32;4.37;;;1.87;;
14078;SDS011;7115;50.150;8.568;2023-08-31T08:44:02;5.67;;;1.70;;
14078;SDS011;7115;50.150;8.568;2023-08-31T08:46:32;7.17;;;4.30;;
14078;SDS011;7115;50.150;8.568;2023-08-31T08:49:01;3.47;;;1.67;;
14078;SDS011;7115;50.150;8.568;2023-08-31T08:51:29;7.60;;;1.80;;
14078;SDS011;7115;50.150;8.568;2023-08-31T08:53:58;4.60;;;1.83;;
14078;SDS011;7115;50.150;8.568;2023-08-31T08:56:25;3.47;;;1.60;;
14078;SDS011;7115;50.150;8.568;2023-08-31T08:58:52;4.67;;;1.73;;
14078;SDS011;7115;50.150;8.568;2023-08-31T09:01:19;6.27;;;1.73;;
14078;SDS011;7115;50.150;8.568;2023-08-31T09:03:49;4.70;;;1.50;;
14078;SDS011;7115;50.150;8.568;2023-08-31T09:06:19;4.70;;;1.70;;
14078;SDS011;7115;50.150;8.568;2023-08-31T09:08:52;5.83;;;1.87;;
14078;SDS011;7115;50.150;8.568;2023-08-31T09:11:20;3.50;;;1.50;;
14078;SDS011;7115;50.150;8.568;2023-08-31T09:13:49;5.60;;;1.70;;
14078;SDS011;7115;50.150;8.568;2023-08-31T09:16:23;4.83;;;1.47;;
14078;SDS011;7115;50.150;8.568;2023-08-31T09:18:51;2.70;;;1.43;;
14078;SDS011;7115;50.150;8.568;2023-08-31T09:21:22;5.30;;;1.60;;
14078;SDS011;7115;50.150;8.568;2023-08-31T09:24:00;3.90;;;1.53;;
14078;SDS011;7115;50.150;8.568;2023-08-31T09:26:28;3.70;;;1.50;;
14078;SDS011;7115;50.150;8.568;2023-08-31T09:29:03;7.00;;;1.70;;
14078;SDS011;7115;50.150;8.568;2023-08-31T09:31:30;5.30;;;1.70;;
14078;SDS011;7115;50.150;8.568;2023-08-31T09:33:58;5.93;;;1.47;;
14078;SDS011;7115;50.150;8.568;2023-08-31T09:36:26;4.27;;;1.47;;
14078;SDS011;7115;50.150;8.568;2023-08-31T09:38:56;6.27;;;1.73;;
14078;SDS011;7115;50.150;8.568;2023-08-31T09:41:24;5.17;;;1.47;;
14078;SDS011;7115;50.150;8.568;2023-08-31T09:43:51;6.67;;;2.10;;
14078;SDS011;7115;50.150;8.568;2023-08-31T09:46:18;2.30;;;1.20;;
14078;SDS011;7115;50.150;8.568;2023-08-31T09:48:47;2.83;;;1.40;;
14078;SDS011;7115;50.150;8.568;2023-08-31T09:51:15;8.13;;;1.67;;
14078;SDS011;7115;50.150;8.568;2023-08-31T09:53:45;5.87;;;1.80;;
14078;SDS011;7115;50.150;8.568;2023-08-31T09:56:18;7.67;;;2.03;;
14078;SDS011;7115;50.150;8.568;2023-08-31T09:58:47;3.43;;;1.40;;
14078;SDS011;7115;50.150;8.568;2023-08-31T10:01:14;4.80;;;1.73;;
14078;SDS011;7115;50.150;8.568;2023-08-31T10:03:55;5.20;;;1.73;;
14078;SDS011;7115;50.150;8.568;2023-08-31T10:06:22;4.77;;;1.60;;
14078;SDS011;7115;50.150;8.568;2023-08-31T10:08:51;5.63;;;1.77;;
14078;SDS011;7115;50.150;8.568;2023-08-31T10:11:18;10.03;;;2.00;;
14078;SDS011;7115;50.150;8.568;2023-08-31T10:13:45;3.87;;;1.47;;
14078;SDS011;7115;50.150;8.568;2023-08-31T10:16:15;4.80;;;1.70;;
14078;SDS011;7115;50.150;8.568;2023-08-31T10:18:43;5.27;;;1.50;;
14078;SDS011;7115;50.150;8.568;2023-08-31T10:21:10;5.80;;;1.77;;
14078;SDS011;7115;50.150;8.568;2023-08-31T10:23:43;3.43;;;1.30;;
14078;SDS011;7115;50.150;8.568;2023-08-31T10:26:12;3.03;;;1.33;;
14078;SDS011;7115;50.150;8.568;2023-08-31T10:28:49;5.07;;;1.53;;
14078;SDS011;7115;50.150;8.568;2023-08-31T10:31:16;2.17;;;1.23;;
14078;SDS011;7115;50.150;8.568;2023-08-31T10:33:45;2.60;;;1.40;;
14078;SDS011;7115;50.150;8.568;2023-08-31T10:36:13;2.33;;;1.17;;
14078;SDS011;7115;50.150;8.568;2023-08-31T10:38:41;4.07;;;1.60;;
14078;SDS011;7115;50.150;8.568;2023-08-31T10:41:20;4.20;;;1.70;;
14078;SDS011;7115;50.150;8.568;2023-08-31T10:43:48;5.83;;;1.50;;
14078;SDS011;7115;50.150;8.568;2023-08-31T10:46:32;3.47;;;1.50;;
14078;SDS011;7115;50.150;8.568;2023-08-31T10:49:12;5.03;;;1.33;;
14078;SDS011;7115;50.150;8.568;2023-08-31T10:51:41;5.57;;;1.57;;
14078;SDS011;7115;50.150;8.568;2023-08-31T10:54:09;4.80;;;1.30;;
14078;SDS011;7115;50.150;8.568;2023-08-31T10:56:55;3.47;;;1.10;;
14078;SDS011;7115;50.150;8.568;2023-08-31T10:59:41;3.30;;;1.10;;
14078;SDS011;7115;50.150;8.568;2023-08-31T11:02:09;5.53;;;1.50;;
14078;SDS011;7115;50.150;8.568;2023-08-31T11:07:23;5.37;;;1.57;;
14078;SDS011;7115;50.150;8.568;2023-08-31T11:09:51;3.80;;;1.43;;
14078;SDS011;7115;50.150;8.568;2023-08-31T11:12:22;3.00;;;1.00;;
14078;SDS011;7115;50.150;8.568;2023-08-31T11:14:52;3.30;;;1.53;;
14078;SDS011;7115;50.150;8.568;2023-08-31T11:17:19;2.87;;;1.10;;
14078;SDS011;7115;50.150;8.568;2023-08-31T11:19:46;4.43;;;1.40;;
14078;SDS011;7115;50.150;8.568;2023-08-31T11:22:14;2.27;;;1.10;;
14078;SDS011;7115;50.150;8.568;2023-08-31T11:24:41;4.10;;;1.00;;
14078;SDS011;7115;50.150;8.568;2023-08-31T11:27:08;2.53;;;1.27;;
14078;SDS011;7115;50.150;8.568;2023-08-31T11:29:38;4.17;;;1.40;;
14078;SDS011;7115;50.150;8.568;2023-08-31T11:32:09;3.73;;;1.30;;
14078;SDS011;7115;50.150;8.568;2023-08-31T11:34:39;3.53;;;1.23;;
14078;SDS011;7115;50.150;8.568;2023-08-31T11:37:07;4.90;;;1.17;;
14078;SDS011;7115;50.150;8.568;2023-08-31T11:39:34;4.93;;;1.30;;
14078;SDS011;7115;50.150;8.568;2023-08-31T11:42:03;3.10;;;1.50;;
14078;SDS011;7115;50.150;8.568;2023-08-31T11:44:30;5.13;;;2.03;;
14078;SDS011;7115;50.150;8.568;2023-08-31T11:46:59;7.27;;;1.43;;
14078;SDS011;7115;50.150;8.568;2023-08-31T11:49:26;3.50;;;1.27;;
14078;SDS011;7115;50.150;8.568;2023-08-31T11:51:54;3.03;;;1.20;;
14078;SDS011;7115;50.150;8.568;2023-08-31T11:54:21;2.40;;;1.30;;
14078;SDS011;7115;50.150;8.568;2023-08-31T11:56:51;9.03;;;3.27;;
14078;SDS011;7115;50.150;8.568;2023-08-31T11:59:18;5.07;;;1.40;;
14078;SDS011;7115;50.150;8.568;2023-08-31T12:01:46;4.17;;;1.30;;
14078;SDS011;7115;50.150;8.568;2023-08-31T12:04:16;2.60;;;0.90;;
14078;SDS011;7115;50.150;8.568;2023-08-31T12:06:46;3.63;;;1.40;;
14078;SDS011;7115;50.150;8.568;2023-08-31T12:09:16;3.27;;;1.37;;
14078;SDS011;7115;50.150;8.568;2023-08-31T12:11:48;3.47;;;1.07;;
14078;SDS011;7115;50.150;8.568;2023-08-31T12:14:19;4.60;;;1.30;;
14078;SDS011;7115;50.150;8.568;2023-08-31T12:16:47;2.83;;;1.23;;
14078;SDS011;7115;50.150;8.568;2023-08-31T12:19:16;2.80;;;1.03;;
14078;SDS011;7115;50.150;8.568;2023-08-31T12:21:45;4.20;;;1.27;;
14078;SDS011;7115;50.150;8.568;2023-08-31T12:24:12;4.60;;;1.40;;
14078;SDS011;7115;50.150;8.568;2023-08-31T12:26:41;1.60;;;1.03;;
14078;SDS011;7115;50.150;8.568;2023-08-31T12:29:08;4.97;;;1.37;;
14078;SDS011;7115;50.150;8.568;2023-08-31T12:31:35;5.90;;;1.30;;
14078;SDS011;7115;50.150;8.568;2023-08-31T12:34:03;3.83;;;1.43;;
14078;SDS011;7115;50.150;8.568;2023-08-31T12:36:33;4.43;;;1.20;;
14078;SDS011;7115;50.150;8.568;2023-08-31T12:39:02;2.13;;;1.03;;
14078;SDS011;7115;50.150;8.568;2023-08-31T12:41:33;3.43;;;1.13;;
14078;SDS011;7115;50.150;8.568;2023-08-31T12:44:00;2.70;;;1.23;;
14078;SDS011;7115;50.150;8.568;2023-08-31T12:46:27;3.23;;;1.20;;
14078;SDS011;7115;50.150;8.568;2023-08-31T12:48:54;1.93;;;1.10;;
14078;SDS011;7115;50.150;8.568;2023-08-31T12:51:21;2.70;;;1.33;;
14078;SDS011;7115;50.150;8.568;2023-08-31T12:53:49;3.17;;;1.10;;
14078;SDS011;7115;50.150;8.568;2023-08-31T12:56:16;4.03;;;1.47;;
14078;SDS011;7115;50.150;8.568;2023-08-31T12:58:48;4.33;;;1.20;;
14078;SDS011;7115;50.150;8.568;2023-08-31T13:01:16;5.43;;;2.07;;
14078;SDS011;7115;50.150;8.568;2023-08-31T13:03:44;4.30;;;1.30;;
14078;SDS011;7115;50.150;8.568;2023-08-31T13:06:11;5.53;;;1.30;;
14078;SDS011;7115;50.150;8.568;2023-08-31T13:08:38;2.00;;;1.27;;
14078;SDS011;7115;50.150;8.568;2023-08-31T13:11:06;3.90;;;1.00;;
14078;SDS011;7115;50.150;8.568;2023-08-31T13:13:33;4.63;;;1.27;;
14078;SDS011;7115;50.150;8.568;2023-08-31T13:16:00;1.43;;;0.90;;
14078;SDS011;7115;50.150;8.568;2023-08-31T13:18:27;1.70;;;0.90;;
14078;SDS011;7115;50.150;8.568;2023-08-31T13:20:54;1.53;;;1.03;;
14078;SDS011;7115;50.150;8.568;2023-08-31T13:23:22;2.20;;;1.07;;
14078;SDS011;7115;50.150;8.568;2023-08-31T13:25:49;2.20;;;1.20;;
14078;SDS011;7115;50.150;8.568;2023-08-31T13:28:18;1.93;;;0.97;;
14078;SDS011;7115;50.150;8.568;2023-08-31T13:30:45;3.70;;;1.17;;
14078;SDS011;7115;50.150;8.568;2023-08-31T13:33:13;2.70;;;1.47;;
14078;SDS011;7115;50.150;8.568;2023-08-31T13:35:40;2.17;;;1.20;;
14078;SDS011;7115;50.150;8.568;2023-08-31T13:38:06;2.23;;;1.20;;
14078;SDS011;7115;50.150;8.568;2023-08-31T13:40:34;2.00;;;1.20;;
14078;SDS011;7115;50.150;8.568;2023-08-31T13:43:02;1.70;;;1.13;;
14078;SDS011;7115;50.150;8.568;2023-08-31T13:45:31;5.70;;;1.43;;
14078;SDS011;7115;50.150;8.568;2023-08-31T13:47:58;1.83;;;1.17;;
14078;SDS011;7115;50.150;8.568;2023-08-31T13:50:30;3.70;;;1.60;;
14078;SDS011;7115;50.150;8.568;2023-08-31T13:52:57;3.30;;;1.13;;
14078;SDS011;7115;50.150;8.568;2023-08-31T13:55:24;3.93;;;1.23;;
14078;SDS011;7115;50.150;8.568;2023-08-31T13:57:51;1.37;;;0.93;;
14078;SDS011;7115;50.150;8.568;2023-08-31T14:00:18;3.67;;;1.30;;
14078;SDS011;7115;50.150;8.568;2023-08-31T14:02:47;4.00;;;1.30;;
14078;SDS011;7115;50.150;8.568;2023-08-31T14:05:14;3.63;;;1.07;;
14078;SDS011;7115;50.150;8.568;2023-08-31T14:07:41;4.83;;;1.27;;
14078;SDS011;7115;50.150;8.568;2023-08-31T14:10:08;2.80;;;1.50;;
14078;SDS011;7115;50.150;8.568;2023-08-31T14:12:35;1.80;;;1.00;;
14078;SDS011;7115;50.150;8.568;2023-08-31T14:15:02;4.57;;;1.20;;
14078;SDS011;7115;50.150;8.568;2023-08-31T14:17:30;3.03;;;1.40;;
14078;SDS011;7115;50.150;8.568;2023-08-31T14:19:59;2.63;;;1.57;;
14078;SDS011;7115;50.150;8.568;2023-08-31T14:22:27;4.07;;;1.37;;
14078;SDS011;7115;50.150;8.568;2023-08-31T14:24:55;5.27;;;1.40;;
14078;SDS011;7115;50.150;8.568;2023-08-31T14:27:22;5.33;;;1.53;;
14078;SDS011;7115;50.150;8.568;2023-08-31T14:29:51;2.23;;;1.00;;
14078;SDS011;7115;50.150;8.568;2023-08-31T14:32:18;2.23;;;1.37;;
14078;SDS011;7115;50.150;8.568;2023-08-31T14:34:45;5.00;;;1.53;;
14078;SDS011;7115;50.150;8.568;2023-08-31T14:37:13;5.37;;;1.30;;
14078;SDS011;7115;50.150;8.568;2023-08-31T14:39:40;3.53;;;1.50;;
14078;SDS011;7115;50.150;8.568;2023-08-31T14:42:07;2.87;;;1.23;;
14078;SDS011;7115;50.150;8.568;2023-08-31T14:44:34;4.87;;;1.33;;
14078;SDS011;7115;50.150;8.568;2023-08-31T14:47:00;6.43;;;1.63;;
14078;SDS011;7115;50.150;8.568;2023-08-31T14:49:27;4.63;;;1.40;;
14078;SDS011;7115;50.150;8.568;2023-08-31T14:51:54;3.13;;;1.40;;
14078;SDS011;7115;50.150;8.568;2023-08-31T14:54:22;5.30;;;1.27;;
14078;SDS011;7115;50.150;8.568;2023-08-31T14:56:50;4.47;;;1.37;;
14078;SDS011;7115;50.150;8.568;2023-08-31T14:59:17;5.27;;;1.63;;
14078;SDS011;7115;50.150;8.568;2023-08-31T15:01:44;2.60;;;1.00;;
14078;SDS011;7115;50.150;8.568;2023-08-31T15:04:12;5.20;;;1.30;;
14078;SDS011;7115;50.150;8.568;2023-08-31T15:06:39;4.83;;;1.33;;
14078;SDS011;7115;50.150;8.568;2023-08-31T15:09:05;3.90;;;1.30;;